createdAt,value
2019-05-19T00:01:12.413Z,15.66
2019-05-19T00:03:42.937Z,15.52
2019-05-19T00:06:13.558Z,15.50
2019-05-19T00:08:44.184Z,15.48
2019-05-19T00:11:14.888Z,15.42
2019-05-19T00:13:45.765Z,15.35
2019-05-19T00:16:16.314Z,15.36
2019-05-19T00:18:47.295Z,15.32
2019-05-19T00:21:18.042Z,15.29
2019-05-19T00:23:48.797Z,15.34
2019-05-19T00:26:19.737Z,15.36
2019-05-19T00:28:50.596Z,15.41
2019-05-19T00:31:21.272Z,15.36
2019-05-19T00:33:52.157Z,15.37
2019-05-19T00:36:23.800Z,15.37
2019-05-19T00:38:54.957Z,15.35
2019-05-19T00:41:25.675Z,15.34
2019-05-19T00:43:56.465Z,15.20
2019-05-19T00:46:27.422Z,15.19
2019-05-19T00:48:58.179Z,15.21
2019-05-19T00:51:29.325Z,15.14
2019-05-19T00:54:00.605Z,15.14
2019-05-19T00:56:33.117Z,15.19
2019-05-19T00:59:05.393Z,15.21
2019-05-19T01:01:35.876Z,15.21
2019-05-19T01:04:06.773Z,15.21
2019-05-19T01:06:37.861Z,15.13
2019-05-19T01:09:08.708Z,15.17
2019-05-19T01:11:39.444Z,15.10
2019-05-19T01:14:10.325Z,15.10
2019-05-19T01:16:41.284Z,15.08
2019-05-19T01:19:12.342Z,15.05
2019-05-19T01:21:44.799Z,15.02
2019-05-19T01:24:15.583Z,15.03
2019-05-19T01:26:46.339Z,14.93
2019-05-19T01:29:17.277Z,14.89
2019-05-19T01:31:47.828Z,14.80
2019-05-19T01:34:18.698Z,14.79
2019-05-19T01:36:50.733Z,14.87
2019-05-19T01:39:21.446Z,14.78
2019-05-19T01:41:52.275Z,14.78
2019-05-19T01:44:23.130Z,14.75
2019-05-19T01:46:53.891Z,14.69
2019-05-19T01:49:24.842Z,14.59
2019-05-19T01:51:55.925Z,14.55
2019-05-19T01:54:26.657Z,14.54
2019-05-19T01:56:57.614Z,14.44
2019-05-19T01:59:28.590Z,14.40
2019-05-19T02:01:59.245Z,14.39
2019-05-19T02:04:30.287Z,14.49
2019-05-19T02:07:01.040Z,14.56
2019-05-19T02:09:31.623Z,14.51
2019-05-19T02:12:02.258Z,14.50
2019-05-19T02:14:32.915Z,14.41
2019-05-19T02:17:03.449Z,14.46
2019-05-19T02:19:34.416Z,14.49
2019-05-19T02:22:06.093Z,14.53
2019-05-19T02:24:36.940Z,14.53
2019-05-19T02:27:07.482Z,14.72
2019-05-19T02:29:38.173Z,15.23
2019-05-19T02:32:09.003Z,15.60
2019-05-19T02:34:40.075Z,16.18
2019-05-19T02:37:11.972Z,16.47
2019-05-19T02:39:42.642Z,16.75
2019-05-19T02:42:16.724Z,17.03
2019-05-19T02:44:49.538Z,17.04
2019-05-19T02:47:22.307Z,16.93
2019-05-19T02:49:54.600Z,17.01
2019-05-19T02:52:27.315Z,16.84
2019-05-19T02:55:01.393Z,16.67
2019-05-19T02:57:33.399Z,16.28
2019-05-19T03:00:09.315Z,15.98
2019-05-19T03:02:40.269Z,16.11
2019-05-19T03:05:11.145Z,16.27
2019-05-19T03:07:41.845Z,16.66
2019-05-19T03:10:12.815Z,17.22
2019-05-19T03:12:43.857Z,18.11
2019-05-19T03:15:15.041Z,18.80
2019-05-19T03:17:45.976Z,18.94
2019-05-19T03:20:17.364Z,19.02
2019-05-19T03:22:48.508Z,18.99
2019-05-19T03:25:19.209Z,19.03
2019-05-19T03:27:50.088Z,18.96
2019-05-19T03:30:38.075Z,19.11
2019-05-19T03:33:10.707Z,19.21
2019-05-19T03:35:41.633Z,19.37
2019-05-19T03:38:12.439Z,19.12
2019-05-19T03:40:43.087Z,18.64
2019-05-19T03:43:13.745Z,18.45
2019-05-19T03:45:44.623Z,18.35
2019-05-19T03:48:15.710Z,18.42
2019-05-19T03:50:46.597Z,18.38
2019-05-19T03:53:18.213Z,18.18
2019-05-19T03:55:49.094Z,17.72
2019-05-19T03:58:20.081Z,17.99
2019-05-19T04:00:51.209Z,17.98
2019-05-19T04:03:22.067Z,18.07
2019-05-19T04:05:52.702Z,18.16
2019-05-19T04:08:23.487Z,18.42
2019-05-19T04:10:54.390Z,18.42
2019-05-19T04:13:25.059Z,18.57
2019-05-19T04:15:55.665Z,18.63
2019-05-19T04:18:26.256Z,18.67
2019-05-19T04:20:56.994Z,18.67
2019-05-19T04:23:27.537Z,18.83
2019-05-19T04:25:58.390Z,18.78
2019-05-19T04:28:29.197Z,18.98
2019-05-19T04:30:59.858Z,18.98
2019-05-19T04:33:30.654Z,19.16
2019-05-19T04:36:01.338Z,19.25
2019-05-19T04:38:31.971Z,19.39
2019-05-19T04:41:02.701Z,19.20
2019-05-19T04:43:33.240Z,19.18
2019-05-19T04:46:04.297Z,19.42
2019-05-19T04:48:35.029Z,19.55
2019-05-19T04:51:05.707Z,19.62
2019-05-19T04:53:36.323Z,19.83
2019-05-19T04:56:07.151Z,20.09
2019-05-19T04:58:38.139Z,20.05
2019-05-19T05:01:09.059Z,20.11
2019-05-19T05:03:39.763Z,20.17
2019-05-19T05:06:10.505Z,20.24
2019-05-19T05:08:41.236Z,20.44
2019-05-19T05:11:11.948Z,20.50
2019-05-19T05:13:42.604Z,20.55
2019-05-19T05:16:13.297Z,20.62
2019-05-19T05:18:43.766Z,20.72
2019-05-19T05:21:14.538Z,20.90
2019-05-19T05:23:45.371Z,20.97
2019-05-19T05:26:16.272Z,21.09
2019-05-19T05:28:46.979Z,21.14
2019-05-19T05:31:17.823Z,21.22
2019-05-19T05:33:56.972Z,21.38
2019-05-19T05:36:39.032Z,21.45
2019-05-19T05:39:22.065Z,21.54
2019-05-19T05:42:04.339Z,21.57
2019-05-19T05:44:54.868Z,21.69
2019-05-19T05:47:30.270Z,21.60
2019-05-19T05:50:00.802Z,21.56
2019-05-19T05:52:38.539Z,21.83
2019-05-19T05:55:04.600Z,21.76
2019-05-19T05:57:35.245Z,21.89
2019-05-19T06:00:08.704Z,21.96
2019-05-19T06:02:39.627Z,22.17
2019-05-19T06:05:10.561Z,21.92
2019-05-19T06:07:41.314Z,22.11
2019-05-19T06:10:12.578Z,22.05
2019-05-19T06:12:43.216Z,22.23
2019-05-19T06:15:13.925Z,22.09
2019-05-19T06:17:44.879Z,22.41
2019-05-19T06:20:15.639Z,22.55
2019-05-19T06:22:55.981Z,22.56
2019-05-19T06:25:18.548Z,22.30
2019-05-19T06:27:49.393Z,22.21
2019-05-19T06:30:20.348Z,22.72
2019-05-19T06:32:52.943Z,22.74
2019-05-19T06:35:24.005Z,22.58
2019-05-19T06:37:55.158Z,22.91
2019-05-19T06:40:26.016Z,23.04
2019-05-19T06:42:56.982Z,22.95
2019-05-19T06:45:27.964Z,23.10
2019-05-19T06:47:58.903Z,23.07
2019-05-19T06:50:29.841Z,23.16
2019-05-19T06:53:14.061Z,23.30
2019-05-19T06:56:01.581Z,23.44
2019-05-19T06:58:35.054Z,23.47
2019-05-19T07:01:06.125Z,23.51
2019-05-19T07:03:51.391Z,23.42
2019-05-19T07:06:23.294Z,23.53
2019-05-19T07:08:54.124Z,23.90
2019-05-19T07:11:25.171Z,23.62
2019-05-19T07:13:56.129Z,23.83
2019-05-19T07:16:27.307Z,23.84
2019-05-19T07:19:02.917Z,24.03
2019-05-19T07:21:34.236Z,24.02
2019-05-19T07:24:05.284Z,24.25
2019-05-19T07:26:36.156Z,23.95
2019-05-19T07:29:07.211Z,24.02
2019-05-19T07:31:38.170Z,23.92
2019-05-19T07:34:09.235Z,24.09
2019-05-19T07:36:40.291Z,23.95
2019-05-19T07:39:22.055Z,23.72
2019-05-19T07:41:55.995Z,23.82
2019-05-19T07:44:26.854Z,24.17
2019-05-19T07:46:58.136Z,24.09
2019-05-19T07:49:29.098Z,24.05
2019-05-19T07:52:06.219Z,24.07
2019-05-19T07:54:43.920Z,24.23
2019-05-19T07:57:23.747Z,24.16
2019-05-19T08:00:03.880Z,24.17
2019-05-19T08:02:41.568Z,24.32
2019-05-19T08:05:16.421Z,24.27
2019-05-19T08:07:47.544Z,24.37
2019-05-19T08:10:18.797Z,24.44
2019-05-19T08:12:49.857Z,24.31
2019-05-19T08:15:25.797Z,24.45
2019-05-19T08:17:58.025Z,24.45
2019-05-19T08:20:29.085Z,24.69
2019-05-19T08:22:59.935Z,24.74
2019-05-19T08:25:30.992Z,24.90
2019-05-19T08:28:08.607Z,24.89
2019-05-19T08:30:34.333Z,24.86
2019-05-19T08:33:05.180Z,24.72
2019-05-19T08:35:36.583Z,24.68
2019-05-19T08:38:07.523Z,24.76
2019-05-19T08:40:39.404Z,24.95
2019-05-19T08:43:10.260Z,24.76
2019-05-19T08:45:41.358Z,24.92
2019-05-19T08:48:12.296Z,24.93
2019-05-19T08:50:43.346Z,25.02
2019-05-19T08:53:13.927Z,25.00
2019-05-19T08:55:45.085Z,24.92
2019-05-19T08:58:16.121Z,25.14
2019-05-19T09:00:50.855Z,25.15
2019-05-19T09:03:21.895Z,25.24
2019-05-19T09:05:52.875Z,24.84
2019-05-19T09:08:26.883Z,25.16
2019-05-19T09:10:57.972Z,24.83
2019-05-19T09:13:28.926Z,25.15
2019-05-19T09:15:59.982Z,25.17
2019-05-19T09:18:31.041Z,24.95
2019-05-19T09:21:01.987Z,25.07
2019-05-19T09:23:32.957Z,24.89
2019-05-19T09:26:04.325Z,24.79
2019-05-19T09:28:36.590Z,25.13
2019-05-19T09:31:07.436Z,24.96
2019-05-19T09:33:38.539Z,25.44
2019-05-19T09:36:09.486Z,25.44
2019-05-19T09:38:40.428Z,25.45
2019-05-19T09:41:12.520Z,25.58
2019-05-19T09:43:43.673Z,25.30
2019-05-19T09:46:14.756Z,25.43
2019-05-19T09:48:47.746Z,25.45
2019-05-19T09:51:24.054Z,25.40
2019-05-19T09:53:54.871Z,25.83
2019-05-19T09:56:25.847Z,25.83
2019-05-19T09:58:57.006Z,25.92
2019-05-19T10:01:28.788Z,25.72
2019-05-19T10:03:59.851Z,25.63
2019-05-19T10:06:30.817Z,25.94
2019-05-19T10:09:05.047Z,25.94
2019-05-19T10:11:56.450Z,26.25
2019-05-19T10:14:27.393Z,25.90
2019-05-19T10:16:58.267Z,25.86
2019-05-19T10:19:29.422Z,26.30
2019-05-19T10:22:00.347Z,25.90
2019-05-19T10:24:31.449Z,25.94
2019-05-19T10:27:02.285Z,26.16
2019-05-19T10:29:33.347Z,26.32
2019-05-19T10:32:04.325Z,26.06
2019-05-19T10:34:35.695Z,26.28
2019-05-19T10:37:06.327Z,26.51
2019-05-19T10:39:37.304Z,26.51
2019-05-19T10:42:08.365Z,26.21
2019-05-19T10:44:39.320Z,26.07
2019-05-19T10:47:11.802Z,26.64
2019-05-19T10:49:43.190Z,26.84
2019-05-19T10:52:14.147Z,26.63
2019-05-19T10:54:45.206Z,26.56
2019-05-19T10:57:16.155Z,26.33
2019-05-19T10:59:47.221Z,26.27
2019-05-19T11:02:18.284Z,26.21
2019-05-19T11:04:49.116Z,26.66
2019-05-19T11:07:20.198Z,26.24
2019-05-19T11:09:51.153Z,26.22
2019-05-19T11:12:22.215Z,26.78
2019-05-19T11:14:53.170Z,26.78
2019-05-19T11:17:24.029Z,26.72
2019-05-19T11:19:55.073Z,26.53
2019-05-19T11:22:26.156Z,26.67
2019-05-19T11:24:57.216Z,26.80
2019-05-19T11:27:28.049Z,26.76
2019-05-19T11:30:02.098Z,26.76
2019-05-19T11:32:34.593Z,26.98
2019-05-19T11:35:06.859Z,26.89
2019-05-19T11:37:37.936Z,26.69
2019-05-19T11:40:08.980Z,26.93
2019-05-19T11:42:39.545Z,26.73
2019-05-19T11:45:10.698Z,26.78
2019-05-19T11:47:41.244Z,27.01
2019-05-19T11:50:12.214Z,26.95
2019-05-19T11:52:43.517Z,26.95
2019-05-19T11:55:17.513Z,26.76
2019-05-19T11:57:48.580Z,26.75
2019-05-19T12:00:20.012Z,26.60
2019-05-19T12:02:50.583Z,26.95
2019-05-19T12:05:21.664Z,27.04
2019-05-19T12:07:52.610Z,26.83
2019-05-19T12:10:23.670Z,26.84
2019-05-19T12:12:54.736Z,26.81
2019-05-19T12:15:25.791Z,26.89
2019-05-19T12:17:56.756Z,26.78
2019-05-19T12:20:27.605Z,27.06
2019-05-19T12:22:58.730Z,26.96
2019-05-19T12:25:29.828Z,27.06
2019-05-19T12:28:00.766Z,27.00
2019-05-19T12:30:31.756Z,26.88
2019-05-19T12:33:02.931Z,26.75
2019-05-19T12:35:35.516Z,26.89
2019-05-19T12:38:07.976Z,26.77
2019-05-19T12:40:39.059Z,26.93
2019-05-19T12:43:11.049Z,27.05
2019-05-19T12:45:42.291Z,27.17
2019-05-19T12:48:15.633Z,27.02
2019-05-19T12:50:46.979Z,27.10
2019-05-19T12:53:18.036Z,27.22
2019-05-19T12:55:49.104Z,27.05
2019-05-19T12:58:20.176Z,26.92
2019-05-19T13:00:51.106Z,27.02
2019-05-19T13:03:22.180Z,26.94
2019-05-19T13:05:53.145Z,26.91
2019-05-19T13:08:23.994Z,26.83
2019-05-19T13:10:55.070Z,26.87
2019-05-19T13:13:26.113Z,27.07
2019-05-19T13:15:57.188Z,27.06
2019-05-19T13:18:28.136Z,26.99
2019-05-19T13:20:58.973Z,27.03
2019-05-19T13:23:29.934Z,27.08
2019-05-19T13:26:00.915Z,27.26
2019-05-19T13:28:31.969Z,27.23
2019-05-19T13:31:03.030Z,27.17
2019-05-19T13:33:33.897Z,27.23
2019-05-19T13:36:04.949Z,26.98
2019-05-19T13:38:35.627Z,27.02
2019-05-19T13:41:06.456Z,27.30
2019-05-19T13:43:38.422Z,27.50
2019-05-19T13:46:09.496Z,27.17
2019-05-19T13:48:40.467Z,27.29
2019-05-19T13:51:11.414Z,27.25
2019-05-19T13:53:42.252Z,27.19
2019-05-19T13:56:13.230Z,27.01
2019-05-19T13:58:44.289Z,27.05
2019-05-19T14:01:27.990Z,27.07
2019-05-19T14:03:47.619Z,27.12
2019-05-19T14:06:18.714Z,27.07
2019-05-19T14:08:49.743Z,27.16
2019-05-19T14:11:20.703Z,27.17
2019-05-19T14:13:51.571Z,26.93
2019-05-19T14:16:22.615Z,26.92
2019-05-19T14:18:53.596Z,26.98
2019-05-19T14:21:24.693Z,26.93
2019-05-19T14:23:57.146Z,26.95
2019-05-19T14:26:27.901Z,27.05
2019-05-19T14:28:58.962Z,26.89
2019-05-19T14:31:29.934Z,26.89
2019-05-19T14:34:00.960Z,27.10
2019-05-19T14:36:31.923Z,27.62
2019-05-19T14:39:05.896Z,28.28
2019-05-19T14:41:37.127Z,28.23
2019-05-19T14:44:08.086Z,28.76
2019-05-19T14:46:39.351Z,29.01
2019-05-19T14:49:10.293Z,28.92
2019-05-19T14:51:41.352Z,29.18
2019-05-19T14:54:12.331Z,29.82
2019-05-19T14:56:43.390Z,29.49
2019-05-19T14:59:14.961Z,28.77
2019-05-19T15:01:46.020Z,28.44
2019-05-19T15:04:16.980Z,28.88
2019-05-19T15:06:48.044Z,28.78
2019-05-19T15:09:18.999Z,29.21
2019-05-19T15:11:50.145Z,29.12
2019-05-19T15:14:21.103Z,29.19
2019-05-19T15:16:52.080Z,28.66
2019-05-19T15:19:23.020Z,28.97
2019-05-19T15:21:53.995Z,29.04
2019-05-19T15:24:28.783Z,29.05
2019-05-19T15:26:59.371Z,29.20
2019-05-19T15:29:30.462Z,29.33
2019-05-19T15:32:01.712Z,29.18
2019-05-19T15:34:32.862Z,29.14
2019-05-19T15:37:03.819Z,28.78
2019-05-19T15:39:34.898Z,28.83
2019-05-19T15:42:05.845Z,28.60
2019-05-19T15:44:37.839Z,28.92
2019-05-19T15:47:09.103Z,29.15
2019-05-19T15:49:40.060Z,28.99
2019-05-19T15:52:11.145Z,28.86
2019-05-19T15:54:42.089Z,28.90
2019-05-19T15:57:12.921Z,28.78
2019-05-19T15:59:44.006Z,28.77
2019-05-19T16:02:14.963Z,28.22
2019-05-19T16:04:46.019Z,27.95
2019-05-19T16:07:17.078Z,28.68
2019-05-19T16:09:48.141Z,28.31
2019-05-19T16:12:19.088Z,28.17
2019-05-19T16:14:49.955Z,27.46
2019-05-19T16:17:22.443Z,26.78
2019-05-19T16:19:53.404Z,26.16
2019-05-19T16:22:24.345Z,25.52
2019-05-19T16:24:55.200Z,25.16
2019-05-19T16:27:26.305Z,24.81
2019-05-19T16:29:57.439Z,24.59
2019-05-19T16:32:28.383Z,24.44
2019-05-19T16:34:59.471Z,24.28
2019-05-19T16:37:30.527Z,24.13
2019-05-19T16:40:04.151Z,24.09
2019-05-19T16:42:35.202Z,23.97
2019-05-19T16:45:08.779Z,23.76
2019-05-19T16:47:39.469Z,23.65
2019-05-19T16:50:10.594Z,23.55
2019-05-19T16:52:41.598Z,23.39
2019-05-19T16:55:17.235Z,23.27
2019-05-19T16:57:49.221Z,23.17
2019-05-19T17:00:21.250Z,23.17
2019-05-19T17:02:54.939Z,23.03
2019-05-19T17:05:25.917Z,22.92
2019-05-19T17:07:56.856Z,22.91
2019-05-19T17:10:27.917Z,22.71
2019-05-19T17:12:58.856Z,22.59
2019-05-19T17:15:29.931Z,22.47
2019-05-19T17:18:00.903Z,22.32
2019-05-19T17:20:36.577Z,22.19
2019-05-19T17:23:12.402Z,22.22
2019-05-19T17:25:46.231Z,22.00
2019-05-19T17:28:17.189Z,21.97
2019-05-19T17:30:48.159Z,21.79
2019-05-19T17:33:19.221Z,21.64
2019-05-19T17:35:58.420Z,21.59
2019-05-19T17:38:38.859Z,21.48
2019-05-19T17:41:10.812Z,21.43
2019-05-19T17:43:41.872Z,21.45
2019-05-19T17:46:12.812Z,21.47
2019-05-19T17:48:43.776Z,21.26
2019-05-19T17:51:17.612Z,21.20
2019-05-19T17:53:48.267Z,21.13
2019-05-19T17:56:19.223Z,21.02
2019-05-19T17:58:50.540Z,20.94
2019-05-19T18:01:21.119Z,20.91
2019-05-19T18:03:52.200Z,20.85
2019-05-19T18:06:23.037Z,20.85
2019-05-19T18:08:54.015Z,20.88
2019-05-19T18:11:25.083Z,20.91
2019-05-19T18:13:55.726Z,20.91
2019-05-19T18:16:26.890Z,20.93
2019-05-19T18:42:14.932Z,20.64
2019-05-19T18:44:45.989Z,20.62
2019-05-19T18:47:16.947Z,20.61
2019-05-19T18:49:52.306Z,20.58
2019-05-19T18:52:22.956Z,20.62
2019-05-19T18:54:53.793Z,20.64
2019-05-19T18:57:24.774Z,20.62
2019-05-19T18:59:57.751Z,20.63
2019-05-19T19:02:28.835Z,20.68
2019-05-19T19:04:59.776Z,20.65
2019-05-19T19:07:50.305Z,20.63
2019-05-19T19:10:20.204Z,20.61
2019-05-19T19:12:50.576Z,20.51
2019-05-19T19:15:21.629Z,20.49
2019-05-19T19:17:52.465Z,20.48
2019-05-19T19:20:23.544Z,20.40
2019-05-19T19:22:56.274Z,20.23
2019-05-19T19:25:27.303Z,20.31
2019-05-19T19:27:58.370Z,20.33
2019-05-19T19:30:29.199Z,20.19
2019-05-19T19:33:03.472Z,20.03
2019-05-19T19:35:39.127Z,19.82
2019-05-19T19:38:08.370Z,19.68
2019-05-19T19:40:40.545Z,19.77
2019-05-19T19:43:11.460Z,19.81
2019-05-19T19:45:42.545Z,19.76
2019-05-19T19:48:13.070Z,19.72
2019-05-19T19:50:44.066Z,19.67
2019-05-19T19:53:14.580Z,19.70
2019-05-19T19:55:45.535Z,19.66
2019-05-19T19:58:16.517Z,19.65
2019-05-19T20:00:47.575Z,19.63
2019-05-19T20:03:18.208Z,19.58
2019-05-19T20:05:49.187Z,19.59
2019-05-19T20:08:20.122Z,19.52
2019-05-19T20:10:50.993Z,19.45
2019-05-19T20:13:21.938Z,19.43
2019-05-19T20:15:53.015Z,19.38
2019-05-19T20:18:23.981Z,19.22
2019-05-19T20:20:54.914Z,19.08
2019-05-19T20:23:25.891Z,18.89
2019-05-19T20:25:56.849Z,18.72
2019-05-19T20:28:27.794Z,18.63
2019-05-19T20:30:58.658Z,18.45
2019-05-19T20:33:29.725Z,18.35
2019-05-19T20:36:01.296Z,18.30
2019-05-19T20:38:32.459Z,18.23
2019-05-19T20:41:03.401Z,18.15
2019-05-19T20:43:34.257Z,18.02
2019-05-19T20:46:05.114Z,17.91
2019-05-19T20:48:35.988Z,17.86
2019-05-19T20:51:06.928Z,18.31
2019-05-19T20:53:37.903Z,18.45
2019-05-19T20:56:08.759Z,18.53
2019-05-19T20:58:39.698Z,18.69
2019-05-19T21:01:10.559Z,18.75
2019-05-19T21:03:41.634Z,18.87
2019-05-19T21:06:12.576Z,18.92
2019-05-19T21:08:43.124Z,18.88
2019-05-19T21:11:14.203Z,18.93
2019-05-19T21:13:45.264Z,18.94
2019-05-19T21:16:16.120Z,18.85
2019-05-19T21:18:47.061Z,18.81
2019-05-19T21:21:18.040Z,18.73
2019-05-19T21:23:49.100Z,18.72
2019-05-19T21:26:20.158Z,18.66
2019-05-19T21:28:51.097Z,18.85
2019-05-19T21:31:22.075Z,18.74
2019-05-19T21:33:53.033Z,18.66
2019-05-19T21:36:29.516Z,18.49
2019-05-19T21:39:00.676Z,18.38
2019-05-19T21:41:31.514Z,18.21
2019-05-19T21:44:02.601Z,18.21
2019-05-19T21:46:33.655Z,18.16
2019-05-19T21:49:04.713Z,18.09
2019-05-19T21:51:35.673Z,17.94
2019-05-19T21:54:06.633Z,17.91
2019-05-19T21:56:37.570Z,17.90
2019-05-19T21:59:08.553Z,17.97
2019-05-19T22:01:39.488Z,17.78
2019-05-19T22:04:10.345Z,17.52
2019-05-19T22:06:42.958Z,17.55
2019-05-19T22:09:13.899Z,17.45
2019-05-19T22:11:44.873Z,17.21
2019-05-19T22:14:15.936Z,17.02
2019-05-19T22:16:46.894Z,16.84
2019-05-19T22:19:17.858Z,16.83
2019-05-19T22:21:48.913Z,16.61
2019-05-19T22:24:19.770Z,16.56
2019-05-19T22:26:50.710Z,16.62
2019-05-19T22:29:21.683Z,16.61
2019-05-19T22:31:52.539Z,16.52
2019-05-19T22:34:23.607Z,16.35
2019-05-19T22:36:54.560Z,16.11
2019-05-19T22:39:25.623Z,16.02
2019-05-19T22:41:56.582Z,16.07
2019-05-19T22:44:27.639Z,16.02
2019-05-19T22:46:58.491Z,15.97
2019-05-19T22:49:29.334Z,15.89
2019-05-19T22:52:00.295Z,15.85
2019-05-19T22:54:31.269Z,15.90
2019-05-19T22:57:02.126Z,15.94
2019-05-19T22:59:33.187Z,15.95
2019-05-19T23:02:04.142Z,15.91
2019-05-19T23:04:35.204Z,16.08
2019-05-19T23:07:06.162Z,16.12
2019-05-19T23:09:36.693Z,16.23
2019-05-19T23:12:07.776Z,16.22
2019-05-19T23:14:38.742Z,16.30
2019-05-19T23:17:09.591Z,16.34
2019-05-19T23:19:40.527Z,16.70
2019-05-19T23:22:11.385Z,16.78
2019-05-19T23:24:42.461Z,17.01
2019-05-19T23:27:13.299Z,17.09
2019-05-19T23:29:44.325Z,17.13
2019-05-19T23:32:15.440Z,17.14
2019-05-19T23:34:46.398Z,17.14
2019-05-19T23:37:17.345Z,17.13
2019-05-19T23:39:48.198Z,17.16
2019-05-19T23:42:19.272Z,17.14
2019-05-19T23:44:50.216Z,17.17
2019-05-19T23:47:21.193Z,17.22
2019-05-19T23:49:52.254Z,17.23
2019-05-19T23:52:23.210Z,17.18
2019-05-19T23:54:54.336Z,17.13
2019-05-19T23:57:25.434Z,17.19
2019-05-19T23:59:56.375Z,17.19
